createdAt,value
2022-08-07T00:02:35.228Z,14.48
2022-08-07T00:04:09.453Z,14.43
2022-08-07T00:06:40.912Z,14.38
2022-08-07T00:09:21.057Z,14.36
2022-08-07T00:11:56.196Z,14.36
2022-08-07T00:14:31.687Z,14.33
2022-08-07T00:17:02.608Z,14.32
2022-08-07T00:19:34.263Z,14.31
2022-08-07T00:22:24.569Z,14.29
2022-08-07T00:25:04.183Z,14.25
2022-08-07T00:27:52.796Z,14.22
2022-08-07T00:30:26.646Z,14.18
2022-08-07T00:32:59.738Z,14.14
2022-08-07T00:35:29.666Z,14.11
2022-08-07T00:37:57.877Z,14.08
2022-08-07T00:40:39.917Z,14.02
2022-08-07T00:44:01.402Z,14.00
2022-08-07T00:46:02.638Z,14.00
2022-08-07T00:48:31.769Z,13.98
2022-08-07T00:51:00.358Z,14.00
2022-08-07T00:53:27.618Z,14.03
2022-08-07T00:56:13.732Z,14.06
2022-08-07T00:58:47.096Z,14.07
2022-08-07T01:01:17.801Z,14.07
2022-08-07T01:03:57.350Z,14.03
2022-08-07T01:06:28.549Z,13.94
2022-08-07T01:08:58.319Z,13.90
2022-08-07T01:12:27.907Z,13.85
2022-08-07T01:14:15.580Z,13.77
2022-08-07T01:16:47.247Z,13.77
2022-08-07T01:19:19.019Z,13.76
2022-08-07T01:21:53.018Z,13.76
2022-08-07T01:24:21.781Z,13.74
2022-08-07T01:26:54.083Z,13.68
2022-08-07T01:29:24.085Z,13.63
2022-08-07T01:31:55.525Z,13.59
2022-08-07T01:34:30.899Z,13.58
2022-08-07T01:36:58.846Z,13.56
2022-08-07T01:39:40.630Z,13.50
2022-08-07T01:42:38.373Z,13.48
2022-08-07T01:45:10.052Z,13.46
2022-08-07T01:48:20.999Z,13.42
2022-08-07T01:50:31.020Z,13.40
2022-08-07T01:53:00.286Z,13.42
2022-08-07T01:55:29.755Z,13.46
2022-08-07T01:58:06.696Z,13.48
2022-08-07T02:01:09.286Z,13.45
2022-08-07T02:03:50.319Z,13.47
2022-08-07T02:06:31.838Z,13.41
2022-08-07T02:09:03.765Z,13.38
2022-08-07T02:12:04.305Z,13.33
2022-08-07T02:14:40.240Z,13.27
2022-08-07T02:17:09.291Z,13.24
2022-08-07T02:20:07.591Z,13.24
2022-08-07T02:22:27.080Z,13.24
2022-08-07T02:24:57.140Z,13.23
2022-08-07T02:27:26.699Z,13.20
2022-08-07T02:30:03.928Z,13.15
2022-08-07T02:32:38.747Z,13.10
2022-08-07T02:35:10.218Z,13.08
2022-08-07T02:37:43.895Z,13.07
2022-08-07T02:40:30.199Z,13.07
2022-08-07T02:43:00.134Z,13.01
2022-08-07T02:45:58.900Z,13.00
2022-08-07T02:48:18.695Z,13.01
2022-08-07T02:50:51.226Z,13.01
2022-08-07T02:53:23.576Z,13.02
2022-08-07T02:56:02.175Z,13.01
2022-08-07T02:58:33.338Z,13.03
2022-08-07T03:01:02.109Z,13.04
2022-08-07T03:03:49.072Z,13.07
2022-08-07T03:06:25.465Z,13.08
2022-08-07T03:08:58.958Z,13.07
2022-08-07T03:11:28.159Z,13.03
2022-08-07T03:13:57.580Z,12.99
2022-08-07T03:16:28.747Z,12.95
2022-08-07T03:18:58.313Z,12.92
2022-08-07T03:21:26.037Z,12.87
2022-08-07T03:24:19.788Z,12.83
2022-08-07T03:26:57.761Z,12.78
2022-08-07T03:29:33.713Z,12.70
2022-08-07T03:32:05.577Z,12.63
2022-08-07T03:34:39.165Z,12.61
2022-08-07T03:37:12.197Z,12.62
2022-08-07T03:39:46.276Z,12.59
2022-08-07T03:42:27.922Z,12.56
2022-08-07T03:44:58.004Z,12.58
2022-08-07T03:47:28.065Z,12.62
2022-08-07T03:49:57.498Z,12.64
2022-08-07T03:52:27.604Z,12.66
2022-08-07T03:55:06.162Z,12.70
2022-08-07T03:58:34.485Z,12.74
2022-08-07T04:00:29.256Z,12.76
2022-08-07T04:03:04.439Z,12.80
2022-08-07T04:05:40.665Z,12.85
2022-08-07T04:08:16.012Z,12.90
2022-08-07T04:10:54.228Z,12.93
2022-08-07T04:14:10.705Z,12.97
2022-08-07T04:16:31.349Z,13.02
2022-08-07T04:19:04.263Z,13.07
2022-08-07T04:21:58.815Z,13.09
2022-08-07T04:24:34.134Z,13.14
2022-08-07T04:27:05.847Z,13.16
2022-08-07T04:29:58.850Z,13.20
2022-08-07T04:32:34.484Z,13.23
2022-08-07T04:35:11.231Z,13.26
2022-08-07T04:37:40.663Z,13.27
2022-08-07T04:40:29.551Z,13.25
2022-08-07T04:43:01.720Z,13.25
2022-08-07T04:45:57.581Z,13.22
2022-08-07T04:48:52.286Z,13.24
2022-08-07T04:51:34.897Z,13.26
2022-08-07T04:54:22.940Z,13.27
2022-08-07T04:58:24.119Z,13.30
2022-08-07T05:00:31.129Z,13.38
2022-08-07T05:03:31.110Z,13.51
2022-08-07T05:06:16.323Z,13.61
2022-08-07T05:09:45.379Z,13.78
2022-08-07T05:12:27.353Z,13.99
2022-08-07T05:15:23.049Z,14.18
2022-08-07T05:17:58.522Z,14.38
2022-08-07T05:20:35.010Z,14.55
2022-08-07T05:23:20.515Z,14.71
2022-08-07T05:26:12.948Z,14.79
2022-08-07T05:28:48.471Z,14.86
2022-08-07T05:31:20.489Z,14.93
2022-08-07T05:34:01.376Z,15.05
2022-08-07T05:36:35.463Z,15.22
2022-08-07T05:40:05.044Z,15.36
2022-08-07T05:42:00.394Z,15.54
2022-08-07T05:44:31.359Z,15.61
2022-08-07T05:47:00.353Z,15.64
2022-08-07T05:49:38.944Z,15.70
2022-08-07T05:52:11.652Z,15.80
2022-08-07T05:54:44.283Z,15.89
2022-08-07T05:57:21.295Z,15.91
2022-08-07T05:59:56.082Z,16.01
2022-08-07T06:02:29.259Z,16.04
2022-08-07T06:05:03.554Z,16.08
2022-08-07T06:08:05.330Z,16.15
2022-08-07T06:10:18.949Z,16.22
2022-08-07T06:12:47.473Z,16.25
2022-08-07T06:15:16.411Z,16.31
2022-08-07T06:17:53.480Z,16.37
2022-08-07T06:20:50.057Z,16.51
2022-08-07T06:23:46.606Z,16.69
2022-08-07T06:26:00.879Z,16.81
2022-08-07T06:28:28.836Z,16.82
2022-08-07T06:30:58.371Z,16.93
2022-08-07T06:33:26.564Z,16.97
2022-08-07T06:36:06.694Z,17.01
2022-08-07T06:38:59.516Z,17.06
2022-08-07T06:42:01.080Z,17.23
2022-08-07T06:44:24.113Z,17.38
2022-08-07T06:46:53.284Z,17.44
2022-08-07T06:49:26.965Z,17.53
2022-08-07T06:52:02.862Z,17.64
2022-08-07T06:55:34.197Z,17.82
2022-08-07T06:57:26.420Z,17.96
2022-08-07T07:00:14.545Z,18.02
2022-08-07T07:02:54.512Z,18.13
2022-08-07T07:06:02.816Z,18.25
2022-08-07T07:08:18.789Z,18.35
2022-08-07T07:10:57.154Z,18.48
2022-08-07T07:13:41.449Z,18.63
2022-08-07T07:16:27.574Z,18.79
2022-08-07T07:19:11.160Z,18.95
2022-08-07T07:22:04.546Z,19.17
2022-08-07T07:24:43.217Z,19.32
2022-08-07T07:27:35.733Z,19.39
2022-08-07T07:30:32.336Z,19.53
2022-08-07T07:33:01.349Z,19.69
2022-08-07T07:35:33.576Z,19.85
2022-08-07T07:38:05.754Z,19.92
2022-08-07T07:40:35.046Z,19.97
2022-08-07T07:43:11.643Z,20.16
2022-08-07T07:46:53.833Z,20.35
2022-08-07T07:48:38.423Z,20.53
2022-08-07T07:51:07.962Z,20.68
2022-08-07T07:53:52.628Z,20.79
2022-08-07T07:56:30.669Z,20.91
2022-08-07T07:59:01.630Z,21.02
2022-08-07T08:02:01.998Z,21.14
2022-08-07T08:04:25.423Z,21.17
2022-08-07T08:06:54.784Z,21.18
2022-08-07T08:09:25.165Z,21.12
2022-08-07T08:12:01.773Z,21.07
2022-08-07T08:14:36.464Z,21.14
2022-08-07T08:17:56.325Z,21.19
2022-08-07T08:20:18.507Z,21.23
2022-08-07T08:23:09.357Z,21.28
2022-08-07T08:25:58.174Z,21.27
2022-08-07T08:28:38.578Z,21.24
2022-08-07T08:31:14.577Z,21.20
2022-08-07T08:33:49.367Z,21.22
2022-08-07T08:36:25.615Z,21.22
2022-08-07T08:38:58.040Z,21.28
2022-08-07T08:41:58.483Z,21.31
2022-08-07T08:45:13.431Z,21.31
2022-08-07T08:47:54.609Z,21.30
2022-08-07T08:50:45.172Z,21.40
2022-08-07T08:53:33.455Z,21.55
2022-08-07T08:56:05.514Z,21.60
2022-08-07T08:58:57.264Z,21.62
2022-08-07T09:01:40.263Z,21.65
2022-08-07T09:04:26.064Z,21.69
2022-08-07T09:07:04.045Z,21.68
2022-08-07T09:09:58.738Z,21.71
2022-08-07T09:12:53.430Z,21.76
2022-08-07T09:16:22.084Z,21.80
2022-08-07T09:19:03.614Z,21.86
2022-08-07T09:22:10.155Z,22.00
2022-08-07T09:24:58.724Z,22.13
2022-08-07T09:27:38.431Z,22.16
2022-08-07T09:30:28.782Z,22.15
2022-08-07T09:33:16.411Z,22.18
2022-08-07T09:36:07.698Z,22.14
2022-08-07T09:38:49.955Z,22.15
2022-08-07T09:41:43.091Z,22.16
2022-08-07T09:47:59.972Z,22.18
2022-08-07T09:50:42.132Z,22.28
2022-08-07T09:53:12.982Z,22.39
2022-08-07T09:56:03.355Z,22.51
2022-08-07T09:59:13.804Z,22.73
2022-08-07T10:01:54.352Z,22.96
2022-08-07T10:04:47.587Z,23.72
2022-08-07T10:07:24.344Z,24.72
2022-08-07T10:10:25.410Z,25.76
2022-08-07T10:14:01.336Z,26.30
2022-08-07T10:16:37.125Z,26.37
2022-08-07T10:19:18.751Z,26.19
2022-08-07T10:22:16.961Z,25.95
2022-08-07T10:24:59.556Z,25.74
2022-08-07T10:27:46.288Z,26.37
2022-08-07T10:30:27.444Z,27.63
2022-08-07T10:33:10.050Z,28.76
2022-08-07T10:35:53.536Z,29.78
2022-08-07T10:38:36.089Z,30.17
2022-08-07T10:41:51.230Z,30.71
2022-08-07T10:44:28.813Z,30.67
2022-08-07T10:47:27.143Z,30.28
2022-08-07T10:50:42.614Z,29.83
2022-08-07T10:53:43.934Z,29.27
2022-08-07T10:56:30.969Z,28.75
2022-08-07T10:59:21.167Z,28.22
2022-08-07T11:02:12.044Z,27.89
2022-08-07T11:04:55.889Z,27.60
2022-08-07T11:07:56.492Z,27.45
2022-08-07T11:10:34.541Z,27.37
2022-08-07T11:14:46.297Z,27.18
2022-08-07T11:16:42.009Z,27.26
2022-08-07T11:19:21.630Z,27.94
2022-08-07T11:22:26.612Z,28.42
2022-08-07T11:25:16.828Z,28.78
2022-08-07T11:28:03.269Z,29.13
2022-08-07T11:30:59.846Z,29.36
2022-08-07T11:34:00.099Z,28.90
2022-08-07T11:36:47.323Z,28.30
2022-08-07T11:40:00.221Z,27.77
2022-08-07T11:42:40.801Z,27.37
2022-08-07T11:45:36.406Z,27.59
2022-08-07T11:48:29.047Z,28.68
2022-08-07T11:51:45.120Z,29.46
2022-08-07T11:54:26.078Z,29.43
2022-08-07T11:57:15.744Z,29.19
2022-08-07T12:00:11.526Z,28.87
2022-08-07T12:03:41.639Z,28.71
2022-08-07T12:06:57.266Z,29.86
2022-08-07T12:09:46.235Z,31.12
2022-08-07T12:12:24.376Z,32.03
2022-08-07T12:15:17.286Z,33.39
2022-08-07T12:18:13.270Z,34.49
2022-08-07T12:21:16.022Z,35.62
2022-08-07T12:24:37.071Z,36.63
2022-08-07T12:27:14.939Z,36.36
2022-08-07T12:30:00.966Z,35.50
2022-08-07T12:32:38.181Z,34.58
2022-08-07T12:35:10.106Z,33.66
2022-08-07T12:38:09.661Z,32.93
2022-08-07T12:40:49.043Z,31.83
2022-08-07T12:44:04.552Z,30.82
2022-08-07T12:46:35.953Z,30.63
2022-08-07T12:49:25.327Z,30.44
2022-08-07T12:52:14.267Z,30.39
2022-08-07T12:55:09.383Z,30.30
2022-08-07T12:58:00.289Z,30.39
2022-08-07T13:00:56.698Z,31.52
2022-08-07T13:04:04.847Z,32.74
2022-08-07T13:07:00.044Z,33.82
2022-08-07T13:10:21.438Z,34.73
2022-08-07T13:12:54.395Z,35.75
2022-08-07T13:15:33.362Z,36.54
2022-08-07T13:18:26.471Z,37.12
2022-08-07T13:21:05.974Z,37.02
2022-08-07T13:24:05.987Z,37.14
2022-08-07T13:26:46.573Z,37.56
2022-08-07T13:29:48.075Z,37.42
2022-08-07T13:32:35.335Z,37.36
2022-08-07T13:35:15.850Z,37.13
2022-08-07T13:38:09.780Z,36.54
2022-08-07T13:41:08.573Z,35.45
2022-08-07T13:43:52.569Z,34.02
2022-08-07T13:46:48.794Z,32.68
2022-08-07T13:52:22.437Z,30.49
2022-08-07T13:55:19.475Z,29.63
2022-08-07T13:58:27.686Z,28.98
2022-08-07T14:01:14.231Z,28.37
2022-08-07T14:04:05.627Z,27.87
2022-08-07T14:06:39.118Z,27.53
2022-08-07T14:09:17.165Z,27.21
2022-08-07T14:12:10.324Z,27.01
2022-08-07T14:14:52.123Z,26.88
2022-08-07T14:18:13.632Z,26.97
2022-08-07T14:20:42.314Z,27.15
2022-08-07T14:24:00.452Z,27.61
2022-08-07T14:26:51.482Z,28.11
2022-08-07T14:30:05.871Z,28.40
2022-08-07T14:32:19.951Z,28.25
2022-08-07T14:34:51.331Z,27.99
2022-08-07T14:37:38.939Z,27.79
2022-08-07T14:40:27.076Z,27.50
2022-08-07T14:43:58.865Z,27.21
2022-08-07T14:46:01.493Z,26.83
2022-08-07T14:48:40.110Z,26.45
2022-08-07T14:51:22.025Z,26.11
2022-08-07T14:54:03.947Z,25.82
2022-08-07T14:56:55.859Z,25.57
2022-08-07T15:00:04.614Z,25.32
2022-08-07T15:02:31.794Z,25.01
2022-08-07T15:05:19.733Z,24.82
2022-08-07T15:07:51.790Z,24.64
2022-08-07T15:10:25.966Z,24.44
2022-08-07T15:13:35.922Z,24.26
2022-08-07T15:16:18.353Z,24.16
2022-08-07T15:19:07.537Z,24.15
2022-08-07T15:25:14.053Z,24.12
2022-08-07T15:27:40.195Z,24.08
2022-08-07T15:30:29.977Z,24.03
2022-08-07T15:36:05.393Z,23.86
2022-08-07T15:38:59.040Z,23.74
2022-08-07T15:42:46.726Z,23.58
2022-08-07T15:44:42.749Z,23.46
2022-08-07T15:47:59.968Z,23.41
2022-08-07T15:53:15.426Z,23.25
2022-08-07T15:55:58.767Z,23.18
2022-08-07T15:59:00.420Z,23.08
2022-08-07T16:01:39.255Z,23.02
2022-08-07T16:04:20.485Z,23.01
2022-08-07T16:06:54.338Z,23.01
2022-08-07T16:09:53.431Z,23.01
2022-08-07T16:12:41.050Z,22.90
2022-08-07T16:16:47.540Z,22.75
2022-08-07T16:19:59.050Z,22.55
2022-08-07T16:22:54.616Z,22.44
2022-08-07T16:25:54.228Z,22.35
2022-08-07T16:30:06.977Z,22.23
2022-08-07T16:31:51.476Z,22.10
2022-08-07T16:34:42.066Z,22.01
2022-08-07T16:38:04.325Z,21.97
2022-08-07T16:41:04.265Z,21.90
2022-08-07T16:44:02.460Z,21.83
2022-08-07T16:47:51.538Z,21.76
2022-08-07T16:51:22.608Z,21.70
2022-08-07T16:54:19.502Z,21.69
2022-08-07T16:56:56.399Z,21.66
2022-08-07T16:59:47.127Z,21.67
2022-08-07T17:02:53.241Z,21.63
2022-08-07T17:06:28.501Z,21.59
2022-08-07T17:08:57.417Z,21.57
2022-08-07T17:12:03.980Z,21.54
2022-08-07T17:14:30.236Z,21.51
2022-08-07T17:17:01.883Z,21.46
2022-08-07T17:20:02.136Z,21.42
2022-08-07T17:22:38.281Z,21.35
2022-08-07T17:25:10.214Z,21.28
2022-08-07T17:27:58.348Z,21.26
2022-08-07T17:30:30.668Z,21.22
2022-08-07T17:34:08.715Z,21.17
2022-08-07T17:36:13.432Z,21.10
2022-08-07T17:38:52.189Z,21.07
2022-08-07T17:42:03.689Z,21.01
2022-08-07T17:44:49.461Z,20.94
2022-08-07T17:47:42.366Z,20.87
2022-08-07T17:50:19.063Z,20.79
2022-08-07T17:53:06.087Z,20.72
2022-08-07T17:56:00.278Z,20.66
2022-08-07T17:58:56.900Z,20.62
2022-08-07T18:01:36.268Z,20.56
2022-08-07T18:04:24.750Z,20.52
2022-08-07T18:07:20.353Z,20.44
2022-08-07T18:10:05.915Z,20.36
2022-08-07T18:12:40.769Z,20.29
2022-08-07T18:15:23.185Z,20.20
2022-08-07T18:18:39.858Z,20.14
2022-08-07T18:21:27.025Z,20.06
2022-08-07T18:24:33.190Z,19.97
2022-08-07T18:27:17.982Z,19.86
2022-08-07T18:30:31.898Z,19.81
2022-08-07T18:33:55.284Z,19.71
2022-08-07T18:36:44.826Z,19.60
2022-08-07T18:40:08.769Z,19.51
2022-08-07T18:42:57.704Z,19.40
2022-08-07T18:45:44.542Z,19.28
2022-08-07T18:50:05.502Z,19.19
2022-08-07T18:52:34.308Z,19.12
2022-08-07T18:54:53.934Z,19.01
2022-08-07T18:58:02.774Z,18.98
2022-08-07T19:00:55.038Z,18.93
2022-08-07T19:03:42.857Z,18.89
2022-08-07T19:06:17.791Z,18.84
2022-08-07T19:09:55.471Z,18.81
2022-08-07T19:12:37.601Z,18.78
2022-08-07T19:16:05.959Z,18.65
2022-08-07T19:18:34.692Z,18.59
2022-08-07T19:21:45.114Z,18.54
2022-08-07T19:24:30.365Z,18.43
2022-08-07T19:28:30.059Z,18.36
2022-08-07T19:31:05.414Z,18.29
2022-08-07T19:32:52.785Z,18.26
2022-08-07T19:35:33.294Z,18.17
2022-08-07T19:38:04.393Z,18.12
2022-08-07T19:40:49.587Z,18.07
2022-08-07T19:43:49.508Z,18.02
2022-08-07T19:46:17.773Z,17.93
2022-08-07T19:48:56.343Z,17.86
2022-08-07T19:51:52.952Z,17.79
2022-08-07T19:54:32.021Z,17.72
2022-08-07T19:58:00.892Z,17.64
2022-08-07T19:59:58.973Z,17.58
2022-08-07T20:02:31.639Z,17.50
2022-08-07T20:05:07.762Z,17.42
2022-08-07T20:07:45.955Z,17.35
2022-08-07T20:10:35.474Z,17.30
2022-08-07T20:13:22.669Z,17.20
2022-08-07T20:15:53.937Z,17.12
2022-08-07T20:18:33.006Z,17.05
2022-08-07T20:21:14.843Z,16.98
2022-08-07T20:23:58.060Z,16.90
2022-08-07T20:26:44.904Z,16.86
2022-08-07T20:29:49.051Z,16.77
2022-08-07T20:32:11.457Z,16.68
2022-08-07T20:34:52.152Z,16.62
2022-08-07T20:37:23.338Z,16.55
2022-08-07T20:40:03.637Z,16.46
2022-08-07T20:42:35.246Z,16.42
2022-08-07T20:45:32.908Z,16.37
2022-08-07T20:47:57.798Z,16.34
2022-08-07T20:50:27.025Z,16.30
2022-08-07T20:52:55.486Z,16.25
2022-08-07T20:55:24.206Z,16.23
2022-08-07T20:58:19.248Z,16.21
2022-08-07T21:00:57.740Z,16.20
2022-08-07T21:03:27.505Z,16.20
2022-08-07T21:06:03.722Z,16.22
2022-08-07T21:09:03.252Z,16.23
2022-08-07T21:11:50.310Z,16.23
2022-08-07T21:14:34.152Z,16.23
2022-08-07T21:18:00.802Z,16.22
2022-08-07T21:20:05.309Z,16.20
2022-08-07T21:22:53.377Z,16.16
2022-08-07T21:25:38.992Z,16.16
2022-08-07T21:28:13.472Z,16.12
2022-08-07T21:30:49.790Z,16.06
2022-08-07T21:33:38.319Z,16.00
2022-08-07T21:36:50.233Z,15.98
2022-08-07T21:39:45.292Z,15.90
2022-08-07T21:42:41.671Z,15.83
2022-08-07T21:46:08.946Z,15.77
2022-08-07T21:48:27.907Z,15.82
2022-08-07T21:51:20.072Z,15.90
2022-08-07T21:54:18.740Z,15.96
2022-08-07T21:57:31.564Z,16.00
2022-08-07T22:00:25.102Z,16.01
2022-08-07T22:03:05.724Z,15.94
2022-08-07T22:05:58.315Z,15.84
2022-08-07T22:08:42.606Z,15.74
2022-08-07T22:11:11.658Z,15.64
2022-08-07T22:13:51.318Z,15.54
2022-08-07T22:16:42.655Z,15.42
2022-08-07T22:19:34.460Z,15.35
2022-08-07T22:22:27.635Z,15.30
2022-08-07T22:25:12.813Z,15.23
2022-08-07T22:28:20.238Z,15.15
2022-08-07T22:30:53.170Z,15.05
2022-08-07T22:33:37.086Z,14.98
2022-08-07T22:36:25.625Z,14.94
2022-08-07T22:38:59.501Z,14.89
2022-08-07T22:42:03.815Z,14.85
2022-08-07T22:44:58.593Z,14.84
2022-08-07T22:47:54.364Z,14.78
2022-08-07T22:50:53.659Z,14.74
2022-08-07T22:54:06.507Z,14.70
2022-08-07T22:57:17.086Z,14.64
2022-08-07T22:59:57.333Z,14.60
2022-08-07T23:02:27.612Z,14.56
2022-08-07T23:06:10.293Z,14.56
2022-08-07T23:08:24.255Z,14.55
2022-08-07T23:11:28.567Z,14.52
2022-08-07T23:14:27.686Z,14.51
2022-08-07T23:17:20.001Z,14.50
2022-08-07T23:20:51.710Z,14.46
2022-08-07T23:24:06.184Z,14.38
2022-08-07T23:26:55.099Z,14.38
2022-08-07T23:30:38.009Z,14.36
2022-08-07T23:34:33.773Z,14.32
2022-08-07T23:35:52.544Z,14.31
2022-08-07T23:39:02.508Z,14.34
2022-08-07T23:41:47.389Z,14.35
2022-08-07T23:44:39.656Z,14.39
2022-08-07T23:47:13.742Z,14.48
2022-08-07T23:50:03.916Z,14.59
2022-08-07T23:53:00.427Z,14.69
2022-08-07T23:56:05.527Z,14.80
2022-08-07T23:59:10.782Z,14.79
